sensor_id;sensor_type;location;lat;lon;timestamp;temperature;humidity
66608;DHT22;53462;39.616;8.824;2022-12-18T00:00:59;9.60;99.90
66608;DHT22;53462;39.616;8.824;2022-12-18T00:03:25;9.70;99.90
66608;DHT22;53462;39.616;8.824;2022-12-18T00:05:52;9.80;99.90
66608;DHT22;53462;39.616;8.824;2022-12-18T00:08:19;9.90;99.90
66608;DHT22;53462;39.616;8.824;2022-12-18T00:10:45;9.90;99.90
66608;DHT22;53462;39.616;8.824;2022-12-18T00:13:12;10.00;99.90
66608;DHT22;53462;39.616;8.824;2022-12-18T00:15:39;10.00;99.90
66608;DHT22;53462;39.616;8.824;2022-12-18T00:18:05;9.90;99.90
66608;DHT22;53462;39.616;8.824;2022-12-18T00:20:38;9.90;99.90
66608;DHT22;53462;39.616;8.824;2022-12-18T00:23:05;9.90;99.90
66608;DHT22;53462;39.616;8.824;2022-12-18T00:25:35;9.90;99.90
66608;DHT22;53462;39.616;8.824;2022-12-18T00:28:03;10.00;99.90
66608;DHT22;53462;39.616;8.824;2022-12-18T00:30:29;10.00;99.90
66608;DHT22;53462;39.616;8.824;2022-12-18T00:32:55;9.90;99.90
66608;DHT22;53462;39.616;8.824;2022-12-18T00:35:25;9.90;99.90
66608;DHT22;53462;39.616;8.824;2022-12-18T00:37:51;9.80;99.90
66608;DHT22;53462;39.616;8.824;2022-12-18T00:40:17;9.60;99.90
66608;DHT22;53462;39.616;8.824;2022-12-18T00:42:43;9.50;99.90
66608;DHT22;53462;39.616;8.824;2022-12-18T00:45:23;9.50;99.90
66608;DHT22;53462;39.616;8.824;2022-12-18T00:47:49;9.30;99.90
66608;DHT22;53462;39.616;8.824;2022-12-18T00:50:15;9.40;99.90
66608;DHT22;53462;39.616;8.824;2022-12-18T00:52:41;9.40;99.90
66608;DHT22;53462;39.616;8.824;2022-12-18T00:55:09;9.40;99.90
66608;DHT22;53462;39.616;8.824;2022-12-18T00:57:35;9.40;99.90
66608;DHT22;53462;39.616;8.824;2022-12-18T01:00:01;9.30;99.90
66608;DHT22;53462;39.616;8.824;2022-12-18T01:02:27;9.20;99.90
66608;DHT22;53462;39.616;8.824;2022-12-18T01:04:53;9.20;99.90
66608;DHT22;53462;39.616;8.824;2022-12-18T01:07:19;9.20;99.90
66608;DHT22;53462;39.616;8.824;2022-12-18T01:09:45;9.10;99.90
66608;DHT22;53462;39.616;8.824;2022-12-18T01:12:11;9.10;99.90
66608;DHT22;53462;39.616;8.824;2022-12-18T01:14:37;9.00;99.90
66608;DHT22;53462;39.616;8.824;2022-12-18T01:17:04;8.90;99.90
66608;DHT22;53462;39.616;8.824;2022-12-18T01:19:32;8.90;99.90
66608;DHT22;53462;39.616;8.824;2022-12-18T01:21:58;8.80;99.90
66608;DHT22;53462;39.616;8.824;2022-12-18T01:24:24;8.80;99.90
66608;DHT22;53462;39.616;8.824;2022-12-18T01:26:50;8.70;99.90
66608;DHT22;53462;39.616;8.824;2022-12-18T01:29:16;8.70;99.90
66608;DHT22;53462;39.616;8.824;2022-12-18T01:31:42;8.70;99.90
66608;DHT22;53462;39.616;8.824;2022-12-18T01:34:08;8.70;99.90
66608;DHT22;53462;39.616;8.824;2022-12-18T01:36:36;8.90;99.90
66608;DHT22;53462;39.616;8.824;2022-12-18T01:39:05;8.90;99.90
66608;DHT22;53462;39.616;8.824;2022-12-18T01:41:32;9.00;99.90
66608;DHT22;53462;39.616;8.824;2022-12-18T01:47:42;9.10;99.90
66608;DHT22;53462;39.616;8.824;2022-12-18T01:52:46;8.90;99.90
66608;DHT22;53462;39.616;8.824;2022-12-18T01:55:16;8.90;99.90
66608;DHT22;53462;39.616;8.824;2022-12-18T01:57:43;9.10;99.90
66608;DHT22;53462;39.616;8.824;2022-12-18T02:00:16;9.20;99.90
66608;DHT22;53462;39.616;8.824;2022-12-18T02:02:44;9.10;99.90
66608;DHT22;53462;39.616;8.824;2022-12-18T02:05:14;9.10;99.90
66608;DHT22;53462;39.616;8.824;2022-12-18T02:10:19;9.30;99.90
66608;DHT22;53462;39.616;8.824;2022-12-18T02:18:41;9.00;99.90
66608;DHT22;53462;39.616;8.824;2022-12-18T02:26:56;8.80;99.90
66608;DHT22;53462;39.616;8.824;2022-12-18T02:29:36;8.90;99.90
66608;DHT22;53462;39.616;8.824;2022-12-18T02:32:08;9.10;99.90
66608;DHT22;53462;39.616;8.824;2022-12-18T02:34:38;9.20;99.90
66608;DHT22;53462;39.616;8.824;2022-12-18T02:37:11;9.20;99.90
66608;DHT22;53462;39.616;8.824;2022-12-18T02:39:40;9.20;99.90
66608;DHT22;53462;39.616;8.824;2022-12-18T02:42:10;9.20;99.90
66608;DHT22;53462;39.616;8.824;2022-12-18T02:44:48;9.10;99.90
66608;DHT22;53462;39.616;8.824;2022-12-18T02:47:21;9.00;99.90
66608;DHT22;53462;39.616;8.824;2022-12-18T03:03:44;9.20;99.90
66608;DHT22;53462;39.616;8.824;2022-12-18T03:06:32;9.20;99.90
66608;DHT22;53462;39.616;8.824;2022-12-18T03:09:06;9.00;99.90
66608;DHT22;53462;39.616;8.824;2022-12-18T03:11:39;8.90;99.90
66608;DHT22;53462;39.616;8.824;2022-12-18T03:14:26;8.90;99.90
66608;DHT22;53462;39.616;8.824;2022-12-18T03:17:00;8.90;99.90
66608;DHT22;53462;39.616;8.824;2022-12-18T03:19:29;8.80;99.90
66608;DHT22;53462;39.616;8.824;2022-12-18T03:22:00;8.90;99.90
66608;DHT22;53462;39.616;8.824;2022-12-18T03:24:35;9.10;99.90
66608;DHT22;53462;39.616;8.824;2022-12-18T03:27:07;9.10;99.90
66608;DHT22;53462;39.616;8.824;2022-12-18T03:29:45;9.00;99.90
66608;DHT22;53462;39.616;8.824;2022-12-18T03:32:21;9.00;99.90
66608;DHT22;53462;39.616;8.824;2022-12-18T03:34:51;9.00;99.90
66608;DHT22;53462;39.616;8.824;2022-12-18T03:37:22;8.80;99.90
66608;DHT22;53462;39.616;8.824;2022-12-18T03:39:48;9.00;99.90
66608;DHT22;53462;39.616;8.824;2022-12-18T03:42:30;9.10;99.90
66608;DHT22;53462;39.616;8.824;2022-12-18T03:45:20;9.10;99.90
66608;DHT22;53462;39.616;8.824;2022-12-18T03:50:46;9.10;99.90
66608;DHT22;53462;39.616;8.824;2022-12-18T03:56:01;8.70;99.90
66608;DHT22;53462;39.616;8.824;2022-12-18T03:58:35;9.00;99.90
66608;DHT22;53462;39.616;8.824;2022-12-18T04:01:20;9.00;99.90
66608;DHT22;53462;39.616;8.824;2022-12-18T04:03:49;8.90;99.90
66608;DHT22;53462;39.616;8.824;2022-12-18T04:06:17;9.00;99.90
66608;DHT22;53462;39.616;8.824;2022-12-18T04:08:44;8.80;99.90
66608;DHT22;53462;39.616;8.824;2022-12-18T04:11:15;8.70;99.90
66608;DHT22;53462;39.616;8.824;2022-12-18T04:13:43;8.60;99.90
66608;DHT22;53462;39.616;8.824;2022-12-18T04:16:17;8.60;99.90
66608;DHT22;53462;39.616;8.824;2022-12-18T04:18:45;8.60;99.90
66608;DHT22;53462;39.616;8.824;2022-12-18T04:21:12;8.60;99.90
66608;DHT22;53462;39.616;8.824;2022-12-18T04:23:38;8.60;99.90
66608;DHT22;53462;39.616;8.824;2022-12-18T04:26:04;8.60;99.90
66608;DHT22;53462;39.616;8.824;2022-12-18T04:28:50;8.60;99.90
66608;DHT22;53462;39.616;8.824;2022-12-18T04:31:16;8.50;99.90
66608;DHT22;53462;39.616;8.824;2022-12-18T04:33:42;8.40;99.90
66608;DHT22;53462;39.616;8.824;2022-12-18T04:36:08;8.40;99.90
66608;DHT22;53462;39.616;8.824;2022-12-18T04:38:34;8.50;99.90
66608;DHT22;53462;39.616;8.824;2022-12-18T04:41:06;8.50;99.90
66608;DHT22;53462;39.616;8.824;2022-12-18T04:43:32;8.60;99.90
66608;DHT22;53462;39.616;8.824;2022-12-18T04:46:08;8.60;99.90
66608;DHT22;53462;39.616;8.824;2022-12-18T04:48:35;8.50;99.90
66608;DHT22;53462;39.616;8.824;2022-12-18T04:51:01;8.50;99.90
66608;DHT22;53462;39.616;8.824;2022-12-18T04:53:27;8.50;99.90
66608;DHT22;53462;39.616;8.824;2022-12-18T04:56:11;8.50;99.90
66608;DHT22;53462;39.616;8.824;2022-12-18T04:58:38;8.40;99.90
66608;DHT22;53462;39.616;8.824;2022-12-18T05:01:04;8.50;99.90
66608;DHT22;53462;39.616;8.824;2022-12-18T05:03:30;8.40;99.90
66608;DHT22;53462;39.616;8.824;2022-12-18T05:05:56;8.40;99.90
66608;DHT22;53462;39.616;8.824;2022-12-18T05:08:23;8.40;99.90
66608;DHT22;53462;39.616;8.824;2022-12-18T05:10:49;8.40;99.90
66608;DHT22;53462;39.616;8.824;2022-12-18T05:13:14;8.30;99.90
66608;DHT22;53462;39.616;8.824;2022-12-18T05:15:40;8.20;99.90
66608;DHT22;53462;39.616;8.824;2022-12-18T05:18:07;8.20;99.90
66608;DHT22;53462;39.616;8.824;2022-12-18T05:20:33;8.20;99.90
66608;DHT22;53462;39.616;8.824;2022-12-18T05:22:59;8.30;99.90
66608;DHT22;53462;39.616;8.824;2022-12-18T05:25:25;8.30;99.90
66608;DHT22;53462;39.616;8.824;2022-12-18T05:27:51;8.40;99.90
66608;DHT22;53462;39.616;8.824;2022-12-18T05:30:17;8.30;99.90
66608;DHT22;53462;39.616;8.824;2022-12-18T05:32:43;8.40;99.90
66608;DHT22;53462;39.616;8.824;2022-12-18T05:35:10;8.30;99.90
66608;DHT22;53462;39.616;8.824;2022-12-18T05:37:36;8.10;99.90
66608;DHT22;53462;39.616;8.824;2022-12-18T05:40:03;8.20;99.90
66608;DHT22;53462;39.616;8.824;2022-12-18T05:42:30;8.20;99.90
66608;DHT22;53462;39.616;8.824;2022-12-18T05:44:56;8.30;99.90
66608;DHT22;53462;39.616;8.824;2022-12-18T05:47:22;8.30;99.90
66608;DHT22;53462;39.616;8.824;2022-12-18T05:49:48;8.20;99.90
66608;DHT22;53462;39.616;8.824;2022-12-18T05:52:14;8.10;99.90
66608;DHT22;53462;39.616;8.824;2022-12-18T05:54:40;8.00;99.90
66608;DHT22;53462;39.616;8.824;2022-12-18T05:57:06;7.90;99.90
66608;DHT22;53462;39.616;8.824;2022-12-18T05:59:31;7.90;99.90
66608;DHT22;53462;39.616;8.824;2022-12-18T06:01:57;7.90;99.90
66608;DHT22;53462;39.616;8.824;2022-12-18T06:04:23;8.00;99.90
66608;DHT22;53462;39.616;8.824;2022-12-18T06:06:49;7.90;99.90
66608;DHT22;53462;39.616;8.824;2022-12-18T06:09:15;7.80;99.90
66608;DHT22;53462;39.616;8.824;2022-12-18T06:11:41;7.80;99.90
66608;DHT22;53462;39.616;8.824;2022-12-18T06:14:08;7.90;99.90
66608;DHT22;53462;39.616;8.824;2022-12-18T06:16:35;7.90;99.90
66608;DHT22;53462;39.616;8.824;2022-12-18T06:19:03;7.90;99.90
66608;DHT22;53462;39.616;8.824;2022-12-18T06:21:30;7.90;99.90
66608;DHT22;53462;39.616;8.824;2022-12-18T06:23:57;7.90;99.90
66608;DHT22;53462;39.616;8.824;2022-12-18T06:26:23;7.90;99.90
66608;DHT22;53462;39.616;8.824;2022-12-18T06:28:49;7.90;99.90
66608;DHT22;53462;39.616;8.824;2022-12-18T06:31:15;7.90;99.90
66608;DHT22;53462;39.616;8.824;2022-12-18T06:33:41;7.90;99.90
66608;DHT22;53462;39.616;8.824;2022-12-18T06:36:09;7.80;99.90
66608;DHT22;53462;39.616;8.824;2022-12-18T06:38:38;8.00;99.90
66608;DHT22;53462;39.616;8.824;2022-12-18T06:41:12;8.00;99.90
66608;DHT22;53462;39.616;8.824;2022-12-18T06:43:38;8.20;99.90
66608;DHT22;53462;39.616;8.824;2022-12-18T06:46:05;8.20;99.90
66608;DHT22;53462;39.616;8.824;2022-12-18T06:48:31;8.10;99.90
66608;DHT22;53462;39.616;8.824;2022-12-18T06:50:58;8.00;99.90
66608;DHT22;53462;39.616;8.824;2022-12-18T06:53:24;8.10;99.90
66608;DHT22;53462;39.616;8.824;2022-12-18T06:55:49;8.00;99.90
66608;DHT22;53462;39.616;8.824;2022-12-18T06:58:15;8.00;99.90
66608;DHT22;53462;39.616;8.824;2022-12-18T07:00:41;7.90;99.90
66608;DHT22;53462;39.616;8.824;2022-12-18T07:03:08;8.00;99.90
66608;DHT22;53462;39.616;8.824;2022-12-18T07:05:33;8.10;99.90
66608;DHT22;53462;39.616;8.824;2022-12-18T07:07:59;8.10;99.90
66608;DHT22;53462;39.616;8.824;2022-12-18T07:10:25;8.10;99.90
66608;DHT22;53462;39.616;8.824;2022-12-18T07:12:51;8.10;99.90
66608;DHT22;53462;39.616;8.824;2022-12-18T07:15:17;8.10;99.90
66608;DHT22;53462;39.616;8.824;2022-12-18T07:17:43;8.20;99.90
66608;DHT22;53462;39.616;8.824;2022-12-18T07:20:10;8.10;99.90
66608;DHT22;53462;39.616;8.824;2022-12-18T07:22:35;8.30;99.90
66608;DHT22;53462;39.616;8.824;2022-12-18T07:25:01;8.40;99.90
66608;DHT22;53462;39.616;8.824;2022-12-18T07:27:27;8.50;99.90
66608;DHT22;53462;39.616;8.824;2022-12-18T07:29:53;8.60;99.90
66608;DHT22;53462;39.616;8.824;2022-12-18T07:32:20;8.80;99.90
66608;DHT22;53462;39.616;8.824;2022-12-18T07:34:46;8.90;99.90
66608;DHT22;53462;39.616;8.824;2022-12-18T07:37:12;8.90;99.90
66608;DHT22;53462;39.616;8.824;2022-12-18T07:39:38;9.00;99.90
66608;DHT22;53462;39.616;8.824;2022-12-18T07:42:04;9.10;99.90
66608;DHT22;53462;39.616;8.824;2022-12-18T07:44:48;9.20;99.90
66608;DHT22;53462;39.616;8.824;2022-12-18T07:47:14;9.40;99.90
66608;DHT22;53462;39.616;8.824;2022-12-18T07:49:40;10.00;99.90
66608;DHT22;53462;39.616;8.824;2022-12-18T07:52:05;12.00;99.90
66608;DHT22;53462;39.616;8.824;2022-12-18T07:54:31;14.50;99.90
66608;DHT22;53462;39.616;8.824;2022-12-18T07:56:57;15.90;99.90
66608;DHT22;53462;39.616;8.824;2022-12-18T07:59:23;16.70;98.80
66608;DHT22;53462;39.616;8.824;2022-12-18T08:01:49;17.50;91.80
66608;DHT22;53462;39.616;8.824;2022-12-18T08:04:15;18.00;88.50
66608;DHT22;53462;39.616;8.824;2022-12-18T08:06:40;18.90;84.70
66608;DHT22;53462;39.616;8.824;2022-12-18T08:09:06;20.10;78.60
66608;DHT22;53462;39.616;8.824;2022-12-18T08:11:34;20.60;72.30
66608;DHT22;53462;39.616;8.824;2022-12-18T08:13:59;20.80;65.40
66608;DHT22;53462;39.616;8.824;2022-12-18T08:16:26;20.80;64.70
66608;DHT22;53462;39.616;8.824;2022-12-18T08:18:52;21.00;61.60
66608;DHT22;53462;39.616;8.824;2022-12-18T08:21:25;20.60;61.20
66608;DHT22;53462;39.616;8.824;2022-12-18T08:23:53;20.80;62.40
66608;DHT22;53462;39.616;8.824;2022-12-18T08:26:20;21.60;58.10
66608;DHT22;53462;39.616;8.824;2022-12-18T08:28:46;22.20;58.20
66608;DHT22;53462;39.616;8.824;2022-12-18T08:31:12;22.70;57.40
66608;DHT22;53462;39.616;8.824;2022-12-18T08:33:39;23.00;53.60
66608;DHT22;53462;39.616;8.824;2022-12-18T08:36:05;23.00;53.90
66608;DHT22;53462;39.616;8.824;2022-12-18T08:38:32;23.40;53.40
66608;DHT22;53462;39.616;8.824;2022-12-18T08:41:03;23.90;51.80
66608;DHT22;53462;39.616;8.824;2022-12-18T08:43:29;23.90;51.00
66608;DHT22;53462;39.616;8.824;2022-12-18T08:46:14;23.00;51.30
66608;DHT22;53462;39.616;8.824;2022-12-18T08:48:40;22.60;53.40
66608;DHT22;53462;39.616;8.824;2022-12-18T08:51:06;23.10;51.60
66608;DHT22;53462;39.616;8.824;2022-12-18T08:53:35;23.60;52.20
66608;DHT22;53462;39.616;8.824;2022-12-18T08:56:02;24.80;49.50
66608;DHT22;53462;39.616;8.824;2022-12-18T08:58:27;24.70;48.60
66608;DHT22;53462;39.616;8.824;2022-12-18T09:00:53;24.80;49.50
66608;DHT22;53462;39.616;8.824;2022-12-18T09:03:19;25.10;47.30
66608;DHT22;53462;39.616;8.824;2022-12-18T09:05:48;25.00;48.10
66608;DHT22;53462;39.616;8.824;2022-12-18T09:08:14;24.40;48.90
66608;DHT22;53462;39.616;8.824;2022-12-18T09:10:47;24.70;47.40
66608;DHT22;53462;39.616;8.824;2022-12-18T09:13:14;25.30;47.00
66608;DHT22;53462;39.616;8.824;2022-12-18T09:15:46;25.10;47.40
66608;DHT22;53462;39.616;8.824;2022-12-18T09:18:13;25.50;46.40
66608;DHT22;53462;39.616;8.824;2022-12-18T09:20:39;25.30;45.80
66608;DHT22;53462;39.616;8.824;2022-12-18T09:23:06;26.50;46.10
66608;DHT22;53462;39.616;8.824;2022-12-18T09:25:33;26.90;45.40
66608;DHT22;53462;39.616;8.824;2022-12-18T09:28:06;27.40;42.00
66608;DHT22;53462;39.616;8.824;2022-12-18T09:30:32;27.60;41.50
66608;DHT22;53462;39.616;8.824;2022-12-18T09:33:00;27.00;40.00
66608;DHT22;53462;39.616;8.824;2022-12-18T09:35:25;26.60;42.20
66608;DHT22;53462;39.616;8.824;2022-12-18T09:37:53;27.00;41.00
66608;DHT22;53462;39.616;8.824;2022-12-18T09:40:23;27.30;41.60
66608;DHT22;53462;39.616;8.824;2022-12-18T09:43:04;27.80;41.40
66608;DHT22;53462;39.616;8.824;2022-12-18T09:45:43;27.30;40.50
66608;DHT22;53462;39.616;8.824;2022-12-18T09:48:26;26.80;42.60
66608;DHT22;53462;39.616;8.824;2022-12-18T09:50:58;27.30;41.80
66608;DHT22;53462;39.616;8.824;2022-12-18T09:53:30;27.40;41.60
66608;DHT22;53462;39.616;8.824;2022-12-18T09:55:57;27.70;40.50
66608;DHT22;53462;39.616;8.824;2022-12-18T09:59:02;28.30;40.20
66608;DHT22;53462;39.616;8.824;2022-12-18T10:01:30;28.40;39.40
66608;DHT22;53462;39.616;8.824;2022-12-18T10:03:57;27.20;41.60
66608;DHT22;53462;39.616;8.824;2022-12-18T10:06:35;26.70;41.40
66608;DHT22;53462;39.616;8.824;2022-12-18T10:14:54;28.40;40.40
66608;DHT22;53462;39.616;8.824;2022-12-18T10:25:41;26.80;42.00
66608;DHT22;53462;39.616;8.824;2022-12-18T10:28:13;26.50;44.40
66608;DHT22;53462;39.616;8.824;2022-12-18T10:30:40;26.80;44.90
66608;DHT22;53462;39.616;8.824;2022-12-18T10:33:12;28.80;41.40
66608;DHT22;53462;39.616;8.824;2022-12-18T10:35:41;29.60;39.30
66608;DHT22;53462;39.616;8.824;2022-12-18T10:43:15;29.70;37.70
66608;DHT22;53462;39.616;8.824;2022-12-18T10:45:42;30.20;39.00
66608;DHT22;53462;39.616;8.824;2022-12-18T10:48:22;30.10;38.90
66608;DHT22;53462;39.616;8.824;2022-12-18T10:50:50;30.70;38.10
66608;DHT22;53462;39.616;8.824;2022-12-18T10:53:26;30.30;36.40
66608;DHT22;53462;39.616;8.824;2022-12-18T10:55:54;29.80;38.70
66608;DHT22;53462;39.616;8.824;2022-12-18T11:03:37;30.70;36.10
66608;DHT22;53462;39.616;8.824;2022-12-18T11:06:10;30.40;36.70
66608;DHT22;53462;39.616;8.824;2022-12-18T11:08:37;30.60;36.70
66608;DHT22;53462;39.616;8.824;2022-12-18T11:11:06;30.20;37.90
66608;DHT22;53462;39.616;8.824;2022-12-18T11:13:33;30.50;36.90
66608;DHT22;53462;39.616;8.824;2022-12-18T11:15:59;30.20;37.30
66608;DHT22;53462;39.616;8.824;2022-12-18T11:18:31;28.80;38.40
66608;DHT22;53462;39.616;8.824;2022-12-18T11:21:00;28.80;38.40
66608;DHT22;53462;39.616;8.824;2022-12-18T11:23:30;29.00;39.30
66608;DHT22;53462;39.616;8.824;2022-12-18T11:25:59;27.20;40.40
66608;DHT22;53462;39.616;8.824;2022-12-18T11:28:39;24.70;47.30
66608;DHT22;53462;39.616;8.824;2022-12-18T11:31:25;23.50;51.70
66608;DHT22;53462;39.616;8.824;2022-12-18T11:33:54;22.50;53.50
66608;DHT22;53462;39.616;8.824;2022-12-18T11:36:22;21.60;55.60
66608;DHT22;53462;39.616;8.824;2022-12-18T11:38:50;21.60;60.40
66608;DHT22;53462;39.616;8.824;2022-12-18T11:41:23;21.60;60.90
66608;DHT22;53462;39.616;8.824;2022-12-18T11:44:26;20.70;60.70
66608;DHT22;53462;39.616;8.824;2022-12-18T11:49:35;19.70;66.70
66608;DHT22;53462;39.616;8.824;2022-12-18T11:52:09;20.30;68.30
66608;DHT22;53462;39.616;8.824;2022-12-18T11:54:35;20.50;66.80
66608;DHT22;53462;39.616;8.824;2022-12-18T12:10:39;20.50;66.90
66608;DHT22;53462;39.616;8.824;2022-12-18T12:16:13;20.20;62.10
66608;DHT22;53462;39.616;8.824;2022-12-18T12:18:51;20.20;67.10
66608;DHT22;53462;39.616;8.824;2022-12-18T12:21:41;20.50;65.40
66608;DHT22;53462;39.616;8.824;2022-12-18T12:24:34;20.50;64.60
66608;DHT22;53462;39.616;8.824;2022-12-18T12:30:21;20.30;60.30
66608;DHT22;53462;39.616;8.824;2022-12-18T12:35:32;20.20;65.30
66608;DHT22;53462;39.616;8.824;2022-12-18T12:38:21;20.20;63.50
66608;DHT22;53462;39.616;8.824;2022-12-18T12:40:54;20.20;64.70
66608;DHT22;53462;39.616;8.824;2022-12-18T12:43:44;20.30;63.80
66608;DHT22;53462;39.616;8.824;2022-12-18T12:46:14;20.50;62.50
66608;DHT22;53462;39.616;8.824;2022-12-18T12:48:50;20.40;62.30
66608;DHT22;53462;39.616;8.824;2022-12-18T12:53:51;20.50;60.50
66608;DHT22;53462;39.616;8.824;2022-12-18T12:56:19;20.50;61.70
66608;DHT22;53462;39.616;8.824;2022-12-18T13:01:59;20.40;60.80
66608;DHT22;53462;39.616;8.824;2022-12-18T13:04:35;20.40;59.80
66608;DHT22;53462;39.616;8.824;2022-12-18T13:07:10;20.50;60.10
66608;DHT22;53462;39.616;8.824;2022-12-18T13:18:05;20.80;58.40
66608;DHT22;53462;39.616;8.824;2022-12-18T13:20:39;20.90;56.50
66608;DHT22;53462;39.616;8.824;2022-12-18T13:25:50;21.20;53.50
66608;DHT22;53462;39.616;8.824;2022-12-18T13:28:21;21.30;53.90
66608;DHT22;53462;39.616;8.824;2022-12-18T13:30:57;21.10;53.90
66608;DHT22;53462;39.616;8.824;2022-12-18T13:36:00;21.70;51.20
66608;DHT22;53462;39.616;8.824;2022-12-18T13:38:35;22.40;49.70
66608;DHT22;53462;39.616;8.824;2022-12-18T13:43:36;26.60;41.20
66608;DHT22;53462;39.616;8.824;2022-12-18T13:51:51;29.70;34.60
66608;DHT22;53462;39.616;8.824;2022-12-18T13:57:23;29.10;37.10
66608;DHT22;53462;39.616;8.824;2022-12-18T13:59:50;29.70;36.50
66608;DHT22;53462;39.616;8.824;2022-12-18T14:02:27;29.80;34.60
66608;DHT22;53462;39.616;8.824;2022-12-18T14:04:54;29.70;35.10
66608;DHT22;53462;39.616;8.824;2022-12-18T14:07:28;29.60;35.30
66608;DHT22;53462;39.616;8.824;2022-12-18T14:09:57;29.20;35.50
66608;DHT22;53462;39.616;8.824;2022-12-18T14:12:29;28.90;36.20
66608;DHT22;53462;39.616;8.824;2022-12-18T14:17:43;28.70;37.30
66608;DHT22;53462;39.616;8.824;2022-12-18T14:20:14;28.10;38.20
66608;DHT22;53462;39.616;8.824;2022-12-18T14:22:45;27.20;38.60
66608;DHT22;53462;39.616;8.824;2022-12-18T14:25:21;24.80;42.40
66608;DHT22;53462;39.616;8.824;2022-12-18T14:30:37;20.30;55.50
66608;DHT22;53462;39.616;8.824;2022-12-18T14:35:36;19.00;63.80
66608;DHT22;53462;39.616;8.824;2022-12-18T14:41:01;18.50;69.60
66608;DHT22;53462;39.616;8.824;2022-12-18T14:43:31;18.30;70.60
66608;DHT22;53462;39.616;8.824;2022-12-18T14:45:57;18.00;71.30
66608;DHT22;53462;39.616;8.824;2022-12-18T14:51:05;17.70;72.20
66608;DHT22;53462;39.616;8.824;2022-12-18T14:53:40;17.50;75.90
66608;DHT22;53462;39.616;8.824;2022-12-18T14:58:49;17.60;76.90
66608;DHT22;53462;39.616;8.824;2022-12-18T15:01:22;17.30;78.70
66608;DHT22;53462;39.616;8.824;2022-12-18T15:03:51;17.10;81.20
66608;DHT22;53462;39.616;8.824;2022-12-18T15:06:37;17.00;81.30
66608;DHT22;53462;39.616;8.824;2022-12-18T15:09:25;16.80;82.60
66608;DHT22;53462;39.616;8.824;2022-12-18T15:11:57;16.70;83.90
66608;DHT22;53462;39.616;8.824;2022-12-18T15:14:41;16.60;84.70
66608;DHT22;53462;39.616;8.824;2022-12-18T15:17:20;16.50;85.90
66608;DHT22;53462;39.616;8.824;2022-12-18T15:19:48;16.40;86.60
66608;DHT22;53462;39.616;8.824;2022-12-18T15:24:49;16.20;88.20
66608;DHT22;53462;39.616;8.824;2022-12-18T15:27:23;16.10;89.30
66608;DHT22;53462;39.616;8.824;2022-12-18T15:32:35;16.00;92.80
66608;DHT22;53462;39.616;8.824;2022-12-18T15:35:22;15.90;94.30
66608;DHT22;53462;39.616;8.824;2022-12-18T15:37:50;15.80;95.40
66608;DHT22;53462;39.616;8.824;2022-12-18T15:40:18;15.80;97.10
66608;DHT22;53462;39.616;8.824;2022-12-18T15:42:45;15.60;98.70
66608;DHT22;53462;39.616;8.824;2022-12-18T15:45:30;15.50;99.90
66608;DHT22;53462;39.616;8.824;2022-12-18T15:47:56;15.40;99.90
66608;DHT22;53462;39.616;8.824;2022-12-18T15:50:23;15.30;99.90
66608;DHT22;53462;39.616;8.824;2022-12-18T15:52:50;15.20;99.90
66608;DHT22;53462;39.616;8.824;2022-12-18T15:55:22;15.10;99.90
66608;DHT22;53462;39.616;8.824;2022-12-18T15:58:07;15.00;99.90
66608;DHT22;53462;39.616;8.824;2022-12-18T16:00:35;14.90;99.90
66608;DHT22;53462;39.616;8.824;2022-12-18T16:03:03;14.80;99.90
66608;DHT22;53462;39.616;8.824;2022-12-18T16:05:29;14.70;99.90
66608;DHT22;53462;39.616;8.824;2022-12-18T16:07:56;14.60;99.90
66608;DHT22;53462;39.616;8.824;2022-12-18T16:10:22;14.50;99.90
66608;DHT22;53462;39.616;8.824;2022-12-18T16:12:49;14.40;99.90
66608;DHT22;53462;39.616;8.824;2022-12-18T16:15:15;14.30;99.90
66608;DHT22;53462;39.616;8.824;2022-12-18T16:17:45;14.30;99.90
66608;DHT22;53462;39.616;8.824;2022-12-18T16:20:16;14.20;99.90
66608;DHT22;53462;39.616;8.824;2022-12-18T16:22:44;14.10;99.90
66608;DHT22;53462;39.616;8.824;2022-12-18T16:25:27;14.00;99.90
66608;DHT22;53462;39.616;8.824;2022-12-18T16:27:54;14.10;99.90
66608;DHT22;53462;39.616;8.824;2022-12-18T16:30:26;14.00;99.90
66608;DHT22;53462;39.616;8.824;2022-12-18T16:32:57;13.90;99.90
66608;DHT22;53462;39.616;8.824;2022-12-18T16:35:24;13.80;99.90
66608;DHT22;53462;39.616;8.824;2022-12-18T16:37:50;13.70;99.90
66608;DHT22;53462;39.616;8.824;2022-12-18T16:40:16;13.60;99.90
66608;DHT22;53462;39.616;8.824;2022-12-18T16:42:44;13.50;99.90
66608;DHT22;53462;39.616;8.824;2022-12-18T16:45:13;13.50;99.90
66608;DHT22;53462;39.616;8.824;2022-12-18T16:47:40;13.50;99.90
66608;DHT22;53462;39.616;8.824;2022-12-18T16:50:07;13.60;99.90
66608;DHT22;53462;39.616;8.824;2022-12-18T16:52:34;13.50;99.90
66608;DHT22;53462;39.616;8.824;2022-12-18T16:55:00;13.50;99.90
66608;DHT22;53462;39.616;8.824;2022-12-18T16:57:26;13.50;99.90
66608;DHT22;53462;39.616;8.824;2022-12-18T16:59:52;13.40;99.90
66608;DHT22;53462;39.616;8.824;2022-12-18T17:02:23;13.30;99.90
66608;DHT22;53462;39.616;8.824;2022-12-18T17:04:49;13.10;99.90
66608;DHT22;53462;39.616;8.824;2022-12-18T17:07:15;13.10;99.90
66608;DHT22;53462;39.616;8.824;2022-12-18T17:09:41;12.80;99.90
66608;DHT22;53462;39.616;8.824;2022-12-18T17:12:07;12.50;99.90
66608;DHT22;53462;39.616;8.824;2022-12-18T17:14:35;12.30;99.90
66608;DHT22;53462;39.616;8.824;2022-12-18T17:17:01;12.40;99.90
66608;DHT22;53462;39.616;8.824;2022-12-18T17:19:27;12.40;99.90
66608;DHT22;53462;39.616;8.824;2022-12-18T17:21:54;12.40;99.90
66608;DHT22;53462;39.616;8.824;2022-12-18T17:24:20;12.50;99.90
66608;DHT22;53462;39.616;8.824;2022-12-18T17:26:47;12.50;99.90
66608;DHT22;53462;39.616;8.824;2022-12-18T17:29:15;12.40;99.90
66608;DHT22;53462;39.616;8.824;2022-12-18T17:31:42;12.30;99.90
66608;DHT22;53462;39.616;8.824;2022-12-18T17:34:09;12.40;99.90
66608;DHT22;53462;39.616;8.824;2022-12-18T17:36:36;12.50;99.90
66608;DHT22;53462;39.616;8.824;2022-12-18T17:39:04;12.60;99.90
66608;DHT22;53462;39.616;8.824;2022-12-18T17:41:30;12.50;99.90
66608;DHT22;53462;39.616;8.824;2022-12-18T17:43:59;12.50;99.90
66608;DHT22;53462;39.616;8.824;2022-12-18T17:46:26;12.50;99.90
66608;DHT22;53462;39.616;8.824;2022-12-18T17:48:59;12.50;99.90
66608;DHT22;53462;39.616;8.824;2022-12-18T17:51:26;12.50;99.90
66608;DHT22;53462;39.616;8.824;2022-12-18T17:53:52;12.50;99.90
66608;DHT22;53462;39.616;8.824;2022-12-18T17:56:20;12.50;99.90
66608;DHT22;53462;39.616;8.824;2022-12-18T17:58:47;12.40;99.90
66608;DHT22;53462;39.616;8.824;2022-12-18T18:01:17;12.40;99.90
66608;DHT22;53462;39.616;8.824;2022-12-18T18:03:45;12.30;99.90
66608;DHT22;53462;39.616;8.824;2022-12-18T18:06:12;12.20;99.90
66608;DHT22;53462;39.616;8.824;2022-12-18T18:08:38;11.70;99.90
66608;DHT22;53462;39.616;8.824;2022-12-18T18:11:13;11.40;99.90
66608;DHT22;53462;39.616;8.824;2022-12-18T18:13:57;11.30;99.90